createdAt,value
2022-09-06T00:00:45.956Z,11.30
2022-09-06T00:03:12.534Z,10.20
2022-09-06T00:05:39.173Z,11.00
2022-09-06T00:08:06.374Z,11.10
2022-09-06T00:10:34.151Z,10.60
2022-09-06T00:13:06.291Z,11.30
2022-09-06T00:15:33.955Z,10.90
2022-09-06T00:18:04.890Z,10.80
2022-09-06T00:20:32.725Z,10.20
2022-09-06T00:23:01.416Z,10.70
2022-09-06T00:25:29.595Z,10.90
2022-09-06T00:27:57.953Z,11.10
2022-09-06T00:30:25.794Z,11.50
2022-09-06T00:32:54.044Z,11.50
2022-09-06T00:35:22.631Z,12.20
2022-09-06T00:37:49.303Z,12.10
2022-09-06T00:40:16.945Z,11.00
2022-09-06T00:42:43.693Z,10.60
2022-09-06T00:45:12.150Z,9.90
2022-09-06T00:47:41.780Z,10.20
2022-09-06T00:50:10.598Z,9.90
2022-09-06T00:52:39.407Z,11.40
2022-09-06T00:55:06.939Z,10.60
2022-09-06T00:57:34.211Z,10.10
2022-09-06T01:00:02.391Z,10.40
2022-09-06T01:02:29.351Z,10.00
2022-09-06T01:04:57.133Z,11.10
2022-09-06T01:07:41.132Z,10.40
2022-09-06T01:10:16.752Z,11.30
2022-09-06T01:13:04.999Z,11.70
2022-09-06T01:15:54.698Z,11.20
2022-09-06T01:18:36.660Z,10.70
2022-09-06T01:21:22.040Z,10.40
2022-09-06T01:24:12.443Z,10.60
2022-09-06T01:26:57.215Z,11.30
2022-09-06T01:29:45.458Z,11.00
2022-09-06T01:32:20.702Z,10.50
2022-09-06T01:35:15.380Z,11.80
2022-09-06T01:37:42.768Z,11.10
2022-09-06T01:40:09.761Z,11.00
2022-09-06T01:42:38.907Z,11.30
2022-09-06T01:45:10.476Z,10.90
2022-09-06T01:47:42.341Z,10.70
2022-09-06T01:50:27.316Z,11.30
2022-09-06T01:53:07.067Z,9.90
2022-09-06T01:55:58.486Z,10.40
2022-09-06T01:58:43.492Z,11.20
2022-09-06T02:01:30.283Z,10.80
2022-09-06T02:04:09.036Z,9.50
2022-09-06T02:06:47.238Z,9.80
2022-09-06T02:09:19.883Z,9.60
2022-09-06T02:11:51.927Z,10.30
2022-09-06T02:14:28.045Z,9.80
2022-09-06T02:16:56.740Z,10.70
2022-09-06T02:19:39.534Z,11.30
2022-09-06T02:22:10.379Z,10.10
2022-09-06T02:24:40.615Z,10.80
2022-09-06T02:27:08.251Z,10.80
2022-09-06T02:29:35.849Z,9.90
2022-09-06T02:32:13.808Z,9.80
2022-09-06T02:34:41.329Z,9.00
2022-09-06T02:37:08.265Z,8.60
2022-09-06T02:39:34.939Z,8.10
2022-09-06T02:42:02.487Z,7.80
2022-09-06T02:44:29.002Z,7.30
2022-09-06T02:46:57.272Z,7.80
2022-09-06T02:49:24.786Z,8.00
2022-09-06T02:51:51.415Z,8.20
2022-09-06T02:54:18.282Z,7.60
2022-09-06T02:56:49.002Z,7.80
2022-09-06T02:59:18.225Z,7.90
2022-09-06T03:01:45.007Z,7.70
2022-09-06T03:04:11.696Z,7.80
2022-09-06T03:06:38.444Z,8.10
2022-09-06T03:09:05.325Z,7.90
2022-09-06T03:11:31.873Z,8.50
2022-09-06T03:13:58.590Z,8.40
2022-09-06T03:16:25.285Z,8.40
2022-09-06T03:18:51.948Z,8.80
2022-09-06T03:21:18.695Z,7.60
2022-09-06T03:23:45.648Z,7.80
2022-09-06T03:26:12.255Z,8.50
2022-09-06T03:28:39.039Z,8.30
2022-09-06T03:31:05.956Z,8.80
2022-09-06T03:33:32.747Z,9.50
2022-09-06T03:36:01.678Z,9.40
2022-09-06T03:38:29.911Z,9.40
2022-09-06T03:40:57.614Z,10.10
2022-09-06T03:43:25.914Z,11.70
2022-09-06T03:45:55.510Z,11.10
2022-09-06T03:48:23.920Z,11.60
2022-09-06T03:50:53.342Z,11.00
2022-09-06T03:53:20.732Z,10.60
2022-09-06T03:55:49.133Z,9.80
2022-09-06T03:58:17.932Z,10.60
2022-09-06T04:00:44.750Z,10.60
2022-09-06T04:03:12.099Z,9.90
2022-09-06T04:05:38.790Z,10.60
2022-09-06T04:08:05.689Z,10.60
2022-09-06T04:10:33.329Z,10.20
2022-09-06T04:12:59.996Z,9.90
2022-09-06T04:15:26.725Z,11.10
2022-09-06T04:17:53.285Z,11.10
2022-09-06T04:20:19.923Z,9.70
2022-09-06T04:22:46.554Z,11.30
2022-09-06T04:25:13.103Z,10.80
2022-09-06T04:27:39.905Z,10.70
2022-09-06T04:30:07.533Z,11.80
2022-09-06T04:32:34.073Z,10.90
2022-09-06T04:35:00.805Z,10.20
2022-09-06T04:37:27.426Z,10.80
2022-09-06T04:39:54.109Z,10.10
2022-09-06T04:42:23.091Z,10.90
2022-09-06T04:44:49.834Z,10.00
2022-09-06T04:47:17.021Z,9.60
2022-09-06T04:49:44.327Z,8.90
2022-09-06T04:52:12.020Z,9.00
2022-09-06T04:54:38.976Z,8.80
2022-09-06T04:57:06.225Z,9.50
2022-09-06T04:59:33.098Z,9.00
2022-09-06T05:01:59.795Z,8.40
2022-09-06T05:04:26.838Z,8.70
2022-09-06T05:07:03.084Z,7.70
2022-09-06T05:09:29.810Z,8.10
2022-09-06T05:11:56.764Z,8.30
2022-09-06T05:14:23.581Z,8.00
2022-09-06T05:16:50.785Z,8.90
2022-09-06T05:19:17.932Z,9.90
2022-09-06T05:21:45.043Z,9.00
2022-09-06T05:24:12.127Z,9.00
2022-09-06T05:26:39.073Z,9.00
2022-09-06T05:29:05.704Z,9.70
2022-09-06T05:31:34.641Z,9.40
2022-09-06T05:34:01.621Z,9.90
2022-09-06T05:36:29.911Z,10.80
2022-09-06T05:38:57.796Z,11.10
2022-09-06T05:41:25.760Z,11.70
2022-09-06T05:43:52.369Z,13.40
2022-09-06T05:46:19.076Z,13.20
2022-09-06T05:48:52.777Z,14.90
2022-09-06T05:51:19.512Z,13.60
2022-09-06T05:53:46.578Z,13.20
2022-09-06T05:56:14.759Z,12.70
2022-09-06T05:58:41.329Z,12.70
2022-09-06T06:01:14.011Z,12.70
2022-09-06T06:03:40.807Z,12.20
2022-09-06T06:06:07.579Z,12.80
2022-09-06T06:08:35.911Z,11.90
2022-09-06T06:11:02.484Z,11.30
2022-09-06T06:13:30.659Z,11.50
2022-09-06T06:15:57.390Z,11.90
2022-09-06T06:18:24.061Z,11.40
2022-09-06T06:20:50.710Z,10.20
2022-09-06T06:23:17.325Z,10.90
2022-09-06T06:25:44.069Z,20.70
2022-09-06T06:28:10.619Z,11.50
2022-09-06T06:30:37.166Z,9.80
2022-09-06T06:33:03.776Z,9.00
2022-09-06T06:35:30.368Z,8.50
2022-09-06T06:37:57.088Z,10.70
2022-09-06T06:40:23.871Z,8.40
2022-09-06T06:42:50.468Z,8.90
2022-09-06T06:45:17.234Z,9.50
2022-09-06T06:47:43.855Z,8.60
2022-09-06T06:50:10.596Z,8.50
2022-09-06T06:52:37.441Z,9.40
2022-09-06T06:55:04.510Z,9.10
2022-09-06T06:57:31.244Z,9.60
2022-09-06T06:59:57.881Z,9.00
2022-09-06T07:02:24.768Z,7.90
2022-09-06T07:04:51.349Z,8.40
2022-09-06T07:07:35.424Z,8.40
2022-09-06T07:12:51.644Z,8.40
2022-09-06T07:15:19.311Z,7.50
2022-09-06T07:17:46.192Z,8.80
2022-09-06T07:20:13.555Z,8.90
2022-09-06T07:22:41.526Z,8.70
2022-09-06T07:25:10.297Z,9.20
2022-09-06T07:30:11.479Z,8.00
2022-09-06T07:32:38.092Z,7.60
2022-09-06T07:35:05.294Z,7.90
2022-09-06T07:37:31.892Z,6.70
2022-09-06T07:39:58.561Z,7.00
2022-09-06T07:42:25.286Z,6.10
2022-09-06T07:44:51.880Z,6.80
2022-09-06T07:53:10.818Z,6.20
2022-09-06T07:55:39.166Z,6.50
2022-09-06T07:58:05.872Z,5.80
2022-09-06T08:00:32.554Z,6.40
2022-09-06T08:02:59.471Z,6.30
2022-09-06T08:11:00.197Z,5.50
2022-09-06T08:13:27.058Z,5.10
2022-09-06T08:16:01.878Z,4.90
2022-09-06T08:18:29.004Z,5.10
2022-09-06T08:20:56.073Z,4.80
2022-09-06T08:23:22.841Z,4.90
2022-09-06T08:25:57.444Z,5.00
2022-09-06T08:28:28.133Z,5.10
2022-09-06T08:30:55.844Z,5.00
2022-09-06T08:33:22.484Z,4.70
2022-09-06T08:35:57.096Z,5.00
2022-09-06T08:38:24.458Z,5.20
2022-09-06T08:40:52.637Z,6.10
2022-09-06T08:43:21.677Z,6.10
2022-09-06T08:45:55.894Z,5.30
2022-09-06T08:48:24.881Z,4.50
2022-09-06T08:51:09.839Z,4.90
2022-09-06T08:53:44.586Z,5.50
2022-09-06T08:56:17.477Z,5.10
2022-09-06T08:58:52.963Z,5.70
2022-09-06T09:01:24.695Z,6.00
2022-09-06T09:03:55.606Z,5.70
2022-09-06T09:06:25.428Z,4.70
2022-09-06T09:09:02.051Z,4.40
2022-09-06T09:11:29.947Z,4.40
2022-09-06T09:14:05.694Z,4.10
2022-09-06T09:16:33.332Z,4.00
2022-09-06T09:19:03.156Z,4.20
2022-09-06T09:21:34.081Z,3.90
2022-09-06T09:24:09.922Z,3.70
2022-09-06T09:27:03.499Z,4.30
2022-09-06T09:29:34.374Z,4.00
2022-09-06T09:32:03.181Z,3.50
2022-09-06T09:34:34.067Z,4.30
2022-09-06T09:40:24.883Z,4.40
2022-09-06T09:42:54.564Z,4.10
2022-09-06T09:45:21.066Z,4.30
2022-09-06T09:47:47.765Z,4.20
2022-09-06T09:50:31.421Z,4.10
2022-09-06T09:53:09.564Z,4.30
2022-09-06T09:55:36.821Z,4.60
2022-09-06T09:58:05.075Z,3.70
2022-09-06T10:00:37.092Z,4.10
2022-09-06T10:03:12.592Z,4.10
2022-09-06T10:05:41.203Z,3.50
2022-09-06T10:08:12.560Z,3.90
2022-09-06T10:10:47.936Z,3.80
2022-09-06T10:13:26.493Z,4.00
2022-09-06T10:15:54.232Z,3.80
2022-09-06T10:18:21.105Z,4.30
2022-09-06T10:20:56.332Z,4.20
2022-09-06T10:26:43.424Z,4.10
2022-09-06T10:29:10.018Z,3.70
2022-09-06T10:31:51.581Z,3.70
2022-09-06T10:34:21.180Z,4.00
2022-09-06T10:37:21.211Z,3.70
2022-09-06T10:40:06.373Z,5.20
2022-09-06T10:42:53.343Z,3.80
2022-09-06T10:45:25.893Z,3.60
2022-09-06T10:48:31.641Z,3.80
2022-09-06T10:51:12.734Z,3.40
2022-09-06T10:53:43.809Z,3.10
2022-09-06T10:56:29.266Z,3.30
2022-09-06T11:02:11.405Z,3.40
2022-09-06T11:07:31.280Z,2.70
2022-09-06T11:10:00.556Z,2.90
2022-09-06T11:12:42.591Z,2.70
2022-09-06T11:15:13.378Z,2.80
2022-09-06T11:18:01.201Z,2.70
2022-09-06T11:20:46.179Z,3.20
2022-09-06T11:23:38.149Z,3.10
2022-09-06T11:26:13.634Z,2.80
2022-09-06T11:28:48.041Z,3.30
2022-09-06T11:34:30.387Z,2.70
2022-09-06T11:37:00.443Z,2.90
2022-09-06T11:42:59.491Z,3.10
2022-09-06T11:45:55.277Z,2.90
2022-09-06T11:48:24.700Z,2.20
2022-09-06T11:50:54.238Z,2.70
2022-09-06T11:53:30.301Z,2.60
2022-09-06T11:56:00.032Z,2.90
2022-09-06T11:58:41.931Z,2.40
2022-09-06T12:01:14.411Z,2.40
2022-09-06T12:06:39.401Z,2.60
2022-09-06T12:09:32.777Z,2.60
2022-09-06T12:12:01.164Z,2.60
2022-09-06T12:14:34.995Z,2.70
2022-09-06T12:17:01.543Z,2.70
2022-09-06T12:19:55.939Z,2.80
2022-09-06T12:22:28.489Z,2.70
2022-09-06T12:24:58.232Z,2.40
2022-09-06T12:27:29.667Z,2.80
2022-09-06T12:30:00.449Z,3.30
2022-09-06T12:32:36.992Z,2.70
2022-09-06T12:38:04.673Z,2.70
2022-09-06T12:40:35.335Z,2.40
2022-09-06T12:43:04.504Z,2.70
2022-09-06T12:45:31.767Z,2.40
2022-09-06T12:48:07.863Z,2.30
2022-09-06T12:50:35.091Z,2.50
2022-09-06T12:53:03.922Z,2.50
2022-09-06T12:55:37.173Z,2.70
2022-09-06T12:58:07.638Z,2.80
2022-09-06T13:00:49.641Z,3.40
2022-09-06T13:03:25.278Z,3.50
2022-09-06T13:05:54.338Z,4.00
2022-09-06T13:08:51.672Z,3.20
2022-09-06T13:11:24.633Z,3.10
2022-09-06T13:13:55.675Z,3.60
2022-09-06T13:16:36.553Z,4.20
2022-09-06T13:19:18.859Z,4.00
2022-09-06T13:21:46.852Z,3.40
2022-09-06T13:24:24.025Z,3.60
2022-09-06T13:26:51.905Z,3.00
2022-09-06T13:29:18.853Z,3.20
2022-09-06T13:31:51.017Z,3.00
2022-09-06T13:34:26.870Z,2.60
2022-09-06T13:36:55.910Z,2.90
2022-09-06T13:39:35.050Z,2.70
2022-09-06T13:42:04.884Z,2.60
2022-09-06T13:44:33.404Z,2.80
2022-09-06T13:47:00.263Z,3.30
2022-09-06T13:49:30.694Z,3.30
2022-09-06T13:54:28.889Z,2.90
2022-09-06T13:56:55.928Z,2.70
2022-09-06T13:59:23.525Z,2.80
2022-09-06T14:02:03.655Z,2.70
2022-09-06T14:04:30.418Z,2.80
2022-09-06T14:06:57.464Z,2.60
2022-09-06T14:09:24.348Z,2.60
2022-09-06T14:11:51.094Z,2.60
2022-09-06T14:14:18.546Z,2.90
2022-09-06T14:16:46.597Z,2.70
2022-09-06T14:19:14.538Z,2.70
2022-09-06T14:21:41.739Z,3.00
2022-09-06T14:24:08.310Z,2.70
2022-09-06T14:26:36.460Z,3.00
2022-09-06T14:29:03.797Z,3.00
2022-09-06T14:31:31.311Z,2.80
2022-09-06T14:33:58.711Z,3.10
2022-09-06T14:36:28.049Z,3.30
2022-09-06T14:38:57.987Z,2.90
2022-09-06T14:41:24.909Z,3.30
2022-09-06T14:43:54.927Z,3.30
2022-09-06T14:46:23.553Z,3.30
2022-09-06T14:48:57.131Z,3.20
2022-09-06T14:51:24.560Z,3.10
2022-09-06T14:53:54.501Z,3.40
2022-09-06T14:56:21.988Z,2.70
2022-09-06T14:58:49.317Z,2.90
2022-09-06T15:01:21.469Z,2.90
2022-09-06T15:03:50.837Z,2.90
2022-09-06T15:06:20.030Z,3.50
2022-09-06T15:08:46.971Z,2.70
2022-09-06T15:11:14.332Z,3.20
2022-09-06T15:13:42.592Z,3.10
2022-09-06T15:16:11.071Z,2.90
2022-09-06T15:18:37.842Z,2.70
2022-09-06T15:21:16.703Z,2.60
2022-09-06T15:23:44.056Z,3.40
2022-09-06T15:26:12.488Z,3.30
2022-09-06T15:28:40.891Z,3.10
2022-09-06T15:31:08.739Z,3.60
2022-09-06T15:33:37.487Z,3.70
2022-09-06T15:36:05.839Z,3.70
2022-09-06T15:38:37.297Z,3.50
2022-09-06T15:41:09.366Z,3.30
2022-09-06T15:43:38.363Z,3.70
2022-09-06T15:46:05.098Z,3.70
2022-09-06T15:48:46.405Z,3.70
2022-09-06T15:51:15.447Z,3.70
2022-09-06T15:53:43.041Z,3.50
2022-09-06T15:56:13.337Z,2.80
2022-09-06T15:58:39.941Z,3.00
2022-09-06T16:01:09.798Z,3.30
2022-09-06T16:03:47.860Z,3.10
2022-09-06T16:08:56.214Z,2.80
2022-09-06T16:11:23.071Z,3.30
2022-09-06T16:13:49.627Z,3.30
2022-09-06T16:16:17.334Z,3.50
2022-09-06T16:18:45.536Z,3.30
2022-09-06T16:21:17.212Z,3.50
2022-09-06T16:23:49.210Z,3.50
2022-09-06T16:26:21.131Z,3.40
2022-09-06T16:28:49.979Z,3.20
2022-09-06T16:31:17.827Z,3.20
2022-09-06T16:33:44.867Z,3.80
2022-09-06T16:36:12.832Z,3.70
2022-09-06T16:38:39.959Z,3.90
2022-09-06T16:41:19.297Z,4.00
2022-09-06T16:43:46.887Z,3.90
2022-09-06T16:46:13.901Z,3.60
2022-09-06T16:48:41.511Z,4.10
2022-09-06T16:51:19.404Z,4.50
2022-09-06T16:53:47.186Z,4.20
2022-09-06T16:56:16.931Z,4.40
2022-09-06T16:58:48.722Z,4.80
2022-09-06T17:01:15.755Z,5.20
2022-09-06T17:03:42.555Z,4.80
2022-09-06T17:06:09.179Z,4.90
2022-09-06T17:08:36.898Z,4.80
2022-09-06T17:11:05.662Z,4.80
2022-09-06T17:13:32.619Z,5.50
2022-09-06T17:15:59.973Z,4.70
2022-09-06T17:18:26.768Z,4.40
2022-09-06T17:21:00.830Z,5.00
2022-09-06T17:23:28.192Z,5.40
2022-09-06T17:25:54.958Z,5.10
2022-09-06T17:28:22.511Z,5.10
2022-09-06T17:30:50.298Z,5.20
2022-09-06T17:33:17.424Z,5.70
2022-09-06T17:35:44.971Z,5.60
2022-09-06T17:38:13.099Z,6.40
2022-09-06T17:40:39.817Z,6.40
2022-09-06T17:43:06.579Z,6.00
2022-09-06T17:45:41.250Z,5.80
2022-09-06T17:48:09.080Z,7.20
2022-09-06T17:50:35.977Z,6.70
2022-09-06T17:53:03.231Z,6.50
2022-09-06T17:55:30.001Z,6.60
2022-09-06T17:57:56.949Z,6.60
2022-09-06T18:00:25.638Z,6.00
2022-09-06T18:02:52.835Z,6.70
2022-09-06T18:05:19.708Z,6.30
2022-09-06T18:07:46.387Z,5.80
2022-09-06T18:10:13.382Z,6.00
2022-09-06T18:12:39.998Z,6.10
2022-09-06T18:15:07.681Z,6.10
2022-09-06T18:17:34.396Z,5.80
2022-09-06T18:20:01.239Z,5.70
2022-09-06T18:22:27.882Z,5.90
2022-09-06T18:24:58.145Z,5.60
2022-09-06T18:27:25.470Z,5.90
2022-09-06T18:29:52.115Z,6.20
2022-09-06T18:32:18.989Z,6.30
2022-09-06T18:34:45.834Z,6.50
2022-09-06T18:37:12.540Z,7.40
2022-09-06T18:39:39.464Z,7.00
2022-09-06T18:42:06.200Z,11.50
2022-09-06T18:44:35.036Z,11.30
2022-09-06T18:47:03.677Z,14.20
2022-09-06T18:49:30.362Z,14.00
2022-09-06T18:51:57.051Z,12.20
2022-09-06T18:54:23.956Z,12.10
2022-09-06T18:56:50.696Z,11.50
2022-09-06T18:59:17.646Z,10.60
2022-09-06T19:01:45.060Z,11.70
2022-09-06T19:04:12.548Z,10.60
2022-09-06T19:06:41.877Z,12.70
2022-09-06T19:09:11.619Z,12.50
2022-09-06T19:11:38.537Z,16.60
2022-09-06T19:14:05.176Z,19.20
2022-09-06T19:16:32.466Z,21.80
2022-09-06T19:19:04.385Z,20.80
2022-09-06T19:21:31.489Z,25.70
2022-09-06T19:24:06.809Z,30.50
2022-09-06T19:26:36.409Z,23.80
2022-09-06T19:29:05.956Z,19.30
2022-09-06T19:31:35.049Z,16.70
2022-09-06T19:34:02.068Z,14.50
2022-09-06T19:36:30.071Z,11.80
2022-09-06T19:39:08.670Z,15.10
2022-09-06T19:41:40.553Z,15.60
2022-09-06T19:44:07.419Z,16.70
2022-09-06T19:46:34.028Z,14.10
2022-09-06T19:49:01.190Z,14.30
2022-09-06T19:51:28.055Z,11.70
2022-09-06T19:53:56.640Z,11.90
2022-09-06T19:56:26.386Z,13.40
2022-09-06T19:58:58.920Z,10.70
2022-09-06T20:01:27.651Z,11.20
2022-09-06T20:03:54.459Z,9.90
2022-09-06T20:06:23.258Z,9.80
2022-09-06T20:08:52.636Z,9.50
2022-09-06T20:11:21.141Z,10.00
2022-09-06T20:13:48.091Z,9.20
2022-09-06T20:16:15.837Z,8.40
2022-09-06T20:18:42.912Z,8.70
2022-09-06T20:21:10.079Z,9.00
2022-09-06T20:23:36.898Z,9.00
2022-09-06T20:26:08.271Z,9.80
2022-09-06T20:31:13.231Z,10.70
2022-09-06T20:33:39.984Z,11.10
2022-09-06T20:36:08.664Z,10.90
2022-09-06T20:38:39.769Z,10.40
2022-09-06T20:41:13.329Z,10.80
2022-09-06T20:43:41.299Z,11.40
2022-09-06T20:46:19.473Z,12.40
2022-09-06T20:48:47.223Z,11.10
2022-09-06T20:51:17.001Z,10.00
2022-09-06T20:53:43.545Z,11.30
2022-09-06T20:56:15.508Z,9.70
2022-09-06T20:58:42.768Z,10.80
2022-09-06T21:01:23.210Z,10.80
2022-09-06T21:03:55.989Z,11.20
2022-09-06T21:06:24.375Z,10.70
2022-09-06T21:08:51.249Z,10.30
2022-09-06T21:11:18.560Z,11.00
2022-09-06T21:13:49.453Z,11.80
2022-09-06T21:16:18.356Z,10.50
2022-09-06T21:21:17.725Z,9.40
2022-09-06T21:23:44.464Z,9.20
2022-09-06T21:26:12.831Z,9.50
2022-09-06T21:28:40.962Z,9.70
2022-09-06T21:31:12.030Z,10.60
2022-09-06T21:36:09.596Z,9.40
2022-09-06T21:38:40.081Z,8.90
2022-09-06T21:41:08.456Z,9.50
2022-09-06T21:43:35.507Z,9.80
2022-09-06T21:46:14.271Z,9.90
2022-09-06T21:48:43.482Z,10.20
2022-09-06T21:51:13.069Z,12.00
2022-09-06T21:53:41.636Z,11.10
2022-09-06T21:56:08.480Z,10.70
2022-09-06T21:58:35.746Z,10.30
2022-09-06T22:01:03.602Z,11.10
2022-09-06T22:03:33.438Z,10.70
2022-09-06T22:06:11.974Z,10.40
2022-09-06T22:08:39.338Z,10.40
2022-09-06T22:11:15.521Z,10.40
2022-09-06T22:13:43.126Z,10.20
2022-09-06T22:16:10.834Z,10.30
2022-09-06T22:18:38.200Z,10.50
2022-09-06T22:21:08.424Z,11.20
2022-09-06T22:23:35.549Z,10.50
2022-09-06T22:26:11.487Z,10.10
2022-09-06T22:28:39.069Z,10.50
2022-09-06T22:31:07.089Z,10.60
2022-09-06T22:33:34.616Z,10.10
2022-09-06T22:36:05.145Z,9.70
2022-09-06T22:38:31.859Z,7.90
2022-09-06T22:40:58.914Z,9.90
2022-09-06T22:43:26.199Z,10.80
2022-09-06T22:45:52.801Z,10.60
2022-09-06T22:48:19.597Z,10.00
2022-09-06T22:50:46.914Z,10.30
2022-09-06T22:53:13.494Z,10.30
2022-09-06T22:55:40.120Z,10.00
2022-09-06T22:58:06.699Z,9.70
2022-09-06T23:00:36.121Z,10.30
2022-09-06T23:03:03.558Z,10.40
2022-09-06T23:05:33.606Z,9.60
2022-09-06T23:08:00.224Z,8.90
2022-09-06T23:10:27.373Z,10.50
2022-09-06T23:12:55.435Z,9.70
2022-09-06T23:15:22.811Z,9.20
2022-09-06T23:17:49.412Z,9.30
2022-09-06T23:20:16.675Z,9.90
2022-09-06T23:22:43.672Z,10.90
2022-09-06T23:25:10.358Z,9.80
2022-09-06T23:27:37.135Z,9.60
2022-09-06T23:30:04.122Z,9.80
2022-09-06T23:32:32.429Z,10.20
2022-09-06T23:34:59.238Z,9.60
2022-09-06T23:37:25.998Z,10.80
2022-09-06T23:39:52.809Z,10.10
2022-09-06T23:42:19.591Z,9.20
2022-09-06T23:44:46.173Z,9.70
2022-09-06T23:47:13.082Z,9.40
2022-09-06T23:49:39.689Z,9.40
2022-09-06T23:52:06.407Z,9.00
2022-09-06T23:54:33.417Z,9.50
2022-09-06T23:57:00.078Z,8.80
2022-09-06T23:59:26.847Z,8.80
